LFSO

Nancy-Ochey (BA 133) Air Base Airport

Nancy/Ochey, France
TAF LFSO 180800Z 1809/1909 23010KT 9999 BKN040
Issued Valid From Valid To
Jun-18 @ 08:00 UTC
(5 hours ago)
Jun-18 @ 09:00 UTC
(4 hours ago)
Jun-19 @ 09:00 UTC
(in 20 hours)
Jun-18 @ 09:00 to Jun-19 @ 09:00
TAF LFSO 180800Z 1809/1909 23010KT 9999 BKN040
Wind Visibility Clouds
230° at 10 knots 10,000+ meters
  • Broken at 4,000' AGL
TAF LFSO 180800Z 1809/1909 23010KT 9999 BKN040
Issued Jun-18 @ 08:00 UTC
(5 hours ago)
Valid From Jun-18 @ 09:00 UTC
(4 hours ago)
Valid To Jun-19 @ 09:00 UTC
(in 20 hours)
Jun-18 @ 09:00 - Jun-19 @ 09:00
Wind Visibility
230° at 10 knots 10,000+ meters
Clouds
  • Broken at 4,000' AGL